createdAt,value
2019-02-10T00:01:36.442Z,11.93
2019-02-10T00:04:04.894Z,13.60
2019-02-10T00:06:34.058Z,12.50
2019-02-10T00:09:02.646Z,14.50
2019-02-10T00:11:32.954Z,12.17
2019-02-10T00:14:02.541Z,9.97
2019-02-10T00:16:30.859Z,13.30
2019-02-10T00:18:59.334Z,15.67
2019-02-10T00:21:27.618Z,17.20
2019-02-10T00:23:56.038Z,17.90
2019-02-10T00:26:24.378Z,17.47
2019-02-10T00:28:52.722Z,15.27
2019-02-10T00:31:20.953Z,16.50
2019-02-10T00:33:49.392Z,16.27
2019-02-10T00:36:17.738Z,18.83
2019-02-10T00:38:46.131Z,13.17
2019-02-10T00:41:14.458Z,17.27
2019-02-10T00:43:42.905Z,8.70
2019-02-10T00:46:11.226Z,14.83
2019-02-10T00:48:39.566Z,18.80
2019-02-10T00:51:08.041Z,15.57
2019-02-10T00:53:36.354Z,16.23
2019-02-10T00:56:04.706Z,13.77
2019-02-10T00:58:33.218Z,16.03
2019-02-10T01:01:01.579Z,17.67
2019-02-10T01:03:30.011Z,17.03
2019-02-10T01:05:58.526Z,13.83
2019-02-10T01:08:27.041Z,19.10
2019-02-10T01:10:55.517Z,16.10
2019-02-10T01:13:24.005Z,16.50
2019-02-10T01:15:52.281Z,15.50
2019-02-10T01:18:20.526Z,14.93
2019-02-10T01:20:48.990Z,14.77
2019-02-10T01:23:17.398Z,15.73
2019-02-10T01:25:45.774Z,14.73
2019-02-10T01:28:14.011Z,14.70
2019-02-10T01:30:42.523Z,16.10
2019-02-10T01:33:10.866Z,15.73
2019-02-10T01:35:39.223Z,16.23
2019-02-10T01:38:07.776Z,13.00
2019-02-10T01:40:36.186Z,16.00
2019-02-10T01:43:04.746Z,13.73
2019-02-10T01:45:33.164Z,18.53
2019-02-10T01:48:01.738Z,9.50
2019-02-10T01:50:30.098Z,14.43
2019-02-10T01:52:58.386Z,15.70
2019-02-10T01:55:26.773Z,14.83
2019-02-10T01:57:55.218Z,13.07
2019-02-10T02:00:23.677Z,17.57
2019-02-10T02:02:52.166Z,14.43
2019-02-10T02:05:20.526Z,14.37
2019-02-10T02:07:48.856Z,10.70
2019-02-10T02:10:17.098Z,12.13
2019-02-10T02:12:45.682Z,12.67
2019-02-10T02:15:14.892Z,12.40
2019-02-10T02:17:43.514Z,14.37
2019-02-10T02:20:12.796Z,14.93
2019-02-10T02:22:41.262Z,13.60
2019-02-10T02:25:10.567Z,12.43
2019-02-10T02:27:39.206Z,13.30
2019-02-10T02:30:09.167Z,12.97
2019-02-10T02:32:37.974Z,13.23
2019-02-10T02:35:06.354Z,13.70
2019-02-10T02:37:34.816Z,11.40
2019-02-10T02:40:03.571Z,13.60
2019-02-10T02:42:31.995Z,13.30
2019-02-10T02:45:00.573Z,13.83
2019-02-10T02:47:28.954Z,11.57
2019-02-10T02:49:57.346Z,15.83
2019-02-10T02:52:25.746Z,11.90
2019-02-10T02:54:54.149Z,11.03
2019-02-10T02:57:22.597Z,14.73
2019-02-10T02:59:50.909Z,12.73
2019-02-10T03:02:19.427Z,11.73
2019-02-10T03:04:47.818Z,11.87
2019-02-10T03:07:18.035Z,14.60
2019-02-10T03:09:46.146Z,14.83
2019-02-10T03:12:14.604Z,11.97
2019-02-10T03:14:43.021Z,12.30
2019-02-10T03:17:11.393Z,12.47
2019-02-10T03:19:39.837Z,9.33
2019-02-10T03:22:08.050Z,9.83
2019-02-10T03:24:36.321Z,9.10
2019-02-10T03:27:04.711Z,15.13
2019-02-10T03:29:33.138Z,9.03
2019-02-10T03:32:01.535Z,14.90
2019-02-10T03:34:30.946Z,11.93
2019-02-10T03:36:59.315Z,13.90
2019-02-10T03:39:27.851Z,9.23
2019-02-10T03:41:56.201Z,10.57
2019-02-10T03:44:24.465Z,14.10
2019-02-10T03:46:52.845Z,9.43
2019-02-10T03:49:21.371Z,7.77
2019-02-10T03:51:49.895Z,10.93
2019-02-10T03:54:18.127Z,9.10
2019-02-10T03:56:46.726Z,9.67
2019-02-10T03:59:16.207Z,11.37
2019-02-10T04:01:44.568Z,10.27
2019-02-10T04:04:12.939Z,7.97
2019-02-10T04:06:41.360Z,9.27
2019-02-10T04:09:09.895Z,8.57
2019-02-10T04:11:38.374Z,12.47
2019-02-10T04:14:06.854Z,8.90
2019-02-10T04:16:35.328Z,10.13
2019-02-10T04:19:03.666Z,11.13
2019-02-10T04:21:32.228Z,8.10
2019-02-10T04:24:00.545Z,9.73
2019-02-10T04:26:28.936Z,9.67
2019-02-10T04:28:57.259Z,11.13
2019-02-10T04:31:25.587Z,9.27
2019-02-10T04:33:54.075Z,9.67
2019-02-10T04:36:22.488Z,7.73
2019-02-10T04:38:51.222Z,9.73
2019-02-10T04:41:20.878Z,10.10
2019-02-10T04:43:49.230Z,11.67
2019-02-10T04:46:17.619Z,12.43
2019-02-10T04:48:45.994Z,9.60
2019-02-10T04:51:14.374Z,9.90
2019-02-10T04:53:42.752Z,10.33
2019-02-10T04:56:12.679Z,9.53
2019-02-10T04:58:40.969Z,9.23
2019-02-10T05:01:09.286Z,9.97
2019-02-10T05:03:37.746Z,9.30
2019-02-10T05:06:06.181Z,10.23
2019-02-10T05:08:34.687Z,9.73
2019-02-10T05:11:03.036Z,11.93
2019-02-10T05:13:31.423Z,8.63
2019-02-10T05:15:59.879Z,9.50
2019-02-10T05:18:28.259Z,10.80
2019-02-10T05:20:56.674Z,10.90
2019-02-10T05:23:25.066Z,9.63
2019-02-10T05:25:53.398Z,11.10
2019-02-10T05:28:23.691Z,9.90
2019-02-10T05:30:51.651Z,10.90
2019-02-10T05:33:20.229Z,10.10
2019-02-10T05:35:48.651Z,8.63
2019-02-10T05:38:17.176Z,8.90
2019-02-10T05:40:45.641Z,8.60
2019-02-10T05:43:14.025Z,10.50
2019-02-10T05:45:42.416Z,10.00
2019-02-10T05:48:10.787Z,9.30
2019-02-10T05:50:39.184Z,9.67
2019-02-10T05:53:08.578Z,8.97
2019-02-10T05:55:36.949Z,10.20
2019-02-10T05:58:05.537Z,8.70
2019-02-10T06:00:33.927Z,12.37
2019-02-10T06:03:02.194Z,8.90
2019-02-10T06:05:30.628Z,9.53
2019-02-10T06:07:58.978Z,9.63
2019-02-10T06:10:27.353Z,10.07
2019-02-10T06:12:55.807Z,7.30
2019-02-10T06:15:24.195Z,11.93
2019-02-10T06:17:52.424Z,11.03
2019-02-10T06:20:20.882Z,9.03
2019-02-10T06:22:49.226Z,11.93
2019-02-10T06:25:17.624Z,7.93
2019-02-10T06:27:45.966Z,9.77
2019-02-10T06:30:14.306Z,9.80
2019-02-10T06:32:42.678Z,11.23
2019-02-10T06:35:10.987Z,11.53
2019-02-10T06:37:39.438Z,11.37
2019-02-10T06:40:08.727Z,10.37
2019-02-10T06:42:37.148Z,10.27
2019-02-10T06:45:06.991Z,10.80
2019-02-10T06:47:35.362Z,10.30
2019-02-10T06:50:03.767Z,10.00
2019-02-10T06:52:32.254Z,9.60
2019-02-10T06:55:00.542Z,8.57
2019-02-10T06:57:28.940Z,8.93
2019-02-10T06:59:59.014Z,10.10
2019-02-10T07:02:29.034Z,10.00
2019-02-10T07:04:57.551Z,9.13
2019-02-10T07:07:26.549Z,10.73
2019-02-10T07:09:54.927Z,8.03
2019-02-10T07:12:24.786Z,10.33
2019-02-10T07:14:54.618Z,10.10
2019-02-10T07:17:24.634Z,12.47
2019-02-10T07:19:55.466Z,11.63
2019-02-10T07:22:25.315Z,10.70
2019-02-10T07:24:55.408Z,10.00
2019-02-10T07:27:25.235Z,9.70
2019-02-10T07:29:55.098Z,10.83
2019-02-10T07:32:24.826Z,7.90
2019-02-10T07:34:54.646Z,10.40
2019-02-10T07:37:24.439Z,9.97
2019-02-10T07:39:54.304Z,11.23
2019-02-10T07:42:24.292Z,9.97
2019-02-10T07:44:54.146Z,10.80
2019-02-10T07:47:24.074Z,11.00
2019-02-10T07:49:54.072Z,10.70
2019-02-10T07:52:23.958Z,9.87
2019-02-10T07:54:53.906Z,12.27
2019-02-10T07:57:23.917Z,10.30
2019-02-10T07:59:53.859Z,10.33
2019-02-10T08:02:23.846Z,9.57
2019-02-10T08:04:53.866Z,10.77
2019-02-10T08:07:23.728Z,11.77
2019-02-10T08:09:53.585Z,13.10
2019-02-10T08:12:23.386Z,11.53
2019-02-10T08:14:53.254Z,11.93
2019-02-10T08:17:23.086Z,9.27
2019-02-10T08:19:52.923Z,9.40
2019-02-10T08:22:22.954Z,10.63
2019-02-10T08:24:52.860Z,10.90
2019-02-10T08:27:22.703Z,8.57
2019-02-10T08:29:52.606Z,10.40
2019-02-10T08:32:20.662Z,12.00
2019-02-10T08:34:50.502Z,9.73
2019-02-10T08:37:20.391Z,12.60
2019-02-10T08:39:50.314Z,10.20
2019-02-10T08:42:21.674Z,12.10
2019-02-10T08:44:51.568Z,10.77
2019-02-10T08:47:21.432Z,12.00
2019-02-10T08:49:52.227Z,13.10
2019-02-10T08:52:22.078Z,8.60
2019-02-10T08:54:50.426Z,10.70
2019-02-10T08:57:18.831Z,11.00
2019-02-10T08:59:47.283Z,11.93
2019-02-10T09:02:15.785Z,11.70
2019-02-10T09:04:44.197Z,11.60
2019-02-10T09:07:12.508Z,10.97
2019-02-10T09:09:40.943Z,10.90
2019-02-10T09:12:09.425Z,11.57
2019-02-10T09:14:37.860Z,11.60
2019-02-10T09:17:05.952Z,11.23
2019-02-10T09:19:34.338Z,11.57
2019-02-10T09:22:02.893Z,9.53
2019-02-10T09:24:31.399Z,12.43
2019-02-10T09:26:59.854Z,11.67
2019-02-10T09:29:28.047Z,10.50
2019-02-10T09:31:56.420Z,10.40
2019-02-10T09:34:24.845Z,13.30
2019-02-10T09:36:53.226Z,9.87
2019-02-10T09:39:22.994Z,9.43
2019-02-10T09:41:51.325Z,9.63
2019-02-10T09:44:19.594Z,11.47
2019-02-10T09:46:47.909Z,9.90
2019-02-10T09:49:16.223Z,10.37
2019-02-10T09:51:44.574Z,9.77
2019-02-10T09:54:12.878Z,8.73
2019-02-10T09:56:41.162Z,7.87
2019-02-10T09:59:09.488Z,9.43
2019-02-10T10:01:37.863Z,8.93
2019-02-10T10:04:06.227Z,10.00
2019-02-10T10:06:34.671Z,9.73
2019-02-10T10:09:04.862Z,7.17
2019-02-10T10:11:33.349Z,11.77
2019-02-10T10:14:01.759Z,8.27
2019-02-10T10:16:30.171Z,11.07
2019-02-10T10:18:58.617Z,12.00
2019-02-10T10:21:26.995Z,10.13
2019-02-10T10:23:55.553Z,10.27
2019-02-10T10:26:23.797Z,12.87
2019-02-10T10:28:52.166Z,11.03
2019-02-10T10:31:20.578Z,9.93
2019-02-10T10:33:48.871Z,9.50
2019-02-10T10:36:17.226Z,10.20
2019-02-10T10:38:45.636Z,9.60
2019-02-10T10:41:14.043Z,11.13
2019-02-10T10:43:42.388Z,9.30
2019-02-10T10:46:10.818Z,9.77
2019-02-10T10:48:39.218Z,10.20
2019-02-10T10:51:07.624Z,9.27
2019-02-10T10:53:36.937Z,10.63
2019-02-10T10:56:05.299Z,9.17
2019-02-10T10:58:33.795Z,7.80
2019-02-10T11:01:02.115Z,8.70
2019-02-10T11:03:30.343Z,10.47
2019-02-10T11:05:59.079Z,8.50
2019-02-10T11:08:27.514Z,10.53
2019-02-10T11:10:55.916Z,8.80
2019-02-10T11:13:24.506Z,8.50
2019-02-10T11:15:52.860Z,9.70
2019-02-10T11:18:21.247Z,8.53
2019-02-10T11:20:49.634Z,9.77
2019-02-10T11:23:19.187Z,9.07
2019-02-10T11:25:47.546Z,7.80
2019-02-10T11:28:16.062Z,8.77
2019-02-10T11:30:44.389Z,8.97
2019-02-10T11:33:12.715Z,5.93
2019-02-10T11:35:41.234Z,8.10
2019-02-10T11:38:09.834Z,6.50
2019-02-10T11:40:38.227Z,9.27
2019-02-10T11:43:06.770Z,8.80
2019-02-10T11:45:35.256Z,10.03
2019-02-10T11:48:03.855Z,6.23
2019-02-10T11:50:32.226Z,9.40
2019-02-10T11:53:00.728Z,8.87
2019-02-10T11:55:29.008Z,9.30
2019-02-10T11:57:57.368Z,8.03
2019-02-10T12:00:25.953Z,7.33
2019-02-10T12:02:54.346Z,9.20
2019-02-10T12:05:22.708Z,8.87
2019-02-10T12:07:51.094Z,9.57
2019-02-10T12:10:19.501Z,10.20
2019-02-10T12:12:47.934Z,8.03
2019-02-10T12:15:16.298Z,9.97
2019-02-10T12:17:44.917Z,8.97
2019-02-10T12:20:14.349Z,6.30
2019-02-10T12:22:49.827Z,9.57
2019-02-10T12:25:12.820Z,9.50
2019-02-10T12:27:41.096Z,8.73
2019-02-10T12:30:10.996Z,9.13
2019-02-10T12:32:39.396Z,10.87
2019-02-10T12:35:08.532Z,9.57
2019-02-10T12:37:38.006Z,9.93
2019-02-10T12:40:07.624Z,11.77
2019-02-10T12:42:35.993Z,10.27
2019-02-10T12:45:06.526Z,8.70
2019-02-10T12:47:34.851Z,8.50
2019-02-10T12:50:04.187Z,6.53
2019-02-10T12:52:32.666Z,7.47
2019-02-10T12:55:01.033Z,7.40
2019-02-10T12:57:29.466Z,8.57
2019-02-10T12:59:57.999Z,7.90
2019-02-10T13:02:26.498Z,5.87
2019-02-10T13:04:54.874Z,7.57
2019-02-10T13:07:23.225Z,8.07
2019-02-10T13:09:51.605Z,8.43
2019-02-10T13:12:20.048Z,7.30
2019-02-10T13:14:48.465Z,7.60
2019-02-10T13:17:16.775Z,7.90
2019-02-10T13:19:45.058Z,8.37
2019-02-10T13:22:13.433Z,6.87
2019-02-10T13:24:41.897Z,7.23
2019-02-10T13:27:10.278Z,6.83
2019-02-10T13:29:40.114Z,8.67
2019-02-10T13:32:08.429Z,8.73
2019-02-10T13:34:37.076Z,8.17
2019-02-10T13:37:05.216Z,8.50
2019-02-10T13:39:33.707Z,7.93
2019-02-10T13:42:02.896Z,7.27
2019-02-10T13:44:31.614Z,7.50
2019-02-10T13:47:00.001Z,6.80
2019-02-10T13:49:28.360Z,8.07
2019-02-10T13:51:56.686Z,5.03
2019-02-10T13:54:25.117Z,7.40
2019-02-10T13:56:54.546Z,7.30
2019-02-10T13:59:23.114Z,5.83
2019-02-10T14:01:51.723Z,5.53
2019-02-10T14:04:20.074Z,8.83
2019-02-10T14:06:48.478Z,7.20
2019-02-10T14:09:16.935Z,5.30
2019-02-10T14:11:45.203Z,5.43
2019-02-10T14:14:13.595Z,6.33
2019-02-10T14:16:41.951Z,5.07
2019-02-10T14:19:10.538Z,6.30
2019-02-10T14:21:39.034Z,7.77
2019-02-10T14:24:07.410Z,8.90
2019-02-10T14:26:35.823Z,7.50
2019-02-10T14:29:04.971Z,8.47
2019-02-10T14:31:33.267Z,9.20
2019-02-10T14:34:03.398Z,11.13
2019-02-10T14:36:32.184Z,9.33
2019-02-10T14:39:00.699Z,9.57
2019-02-10T14:41:30.639Z,16.70
2019-02-10T14:43:59.056Z,10.60
2019-02-10T14:46:27.434Z,11.37
2019-02-10T14:48:55.766Z,11.57
2019-02-10T14:51:24.286Z,15.53
2019-02-10T14:53:52.560Z,15.07
2019-02-10T14:56:20.844Z,16.97
2019-02-10T14:58:50.428Z,16.93
2019-02-10T15:01:18.633Z,18.87
2019-02-10T15:03:47.010Z,18.47
2019-02-10T15:06:15.516Z,13.20
2019-02-10T15:12:00.331Z,9.57
2019-02-10T15:17:34.431Z,12.27
2019-02-10T15:23:19.508Z,10.67
2019-02-10T15:29:03.696Z,11.13
2019-02-10T15:31:32.148Z,11.93
2019-02-10T15:34:00.619Z,12.23
2019-02-10T15:39:44.744Z,13.60
2019-02-10T15:45:29.081Z,13.80
2019-02-10T15:47:57.583Z,11.27
2019-02-10T15:53:42.674Z,10.77
2019-02-10T15:56:11.022Z,10.70
2019-02-10T15:58:39.263Z,9.03
2019-02-10T16:04:23.534Z,14.57
2019-02-10T16:06:51.970Z,8.83
2019-02-10T16:09:20.255Z,15.53
2019-02-10T16:11:48.532Z,14.37
2019-02-10T16:14:16.829Z,13.83
2019-02-10T16:16:45.150Z,10.20
2019-02-10T16:22:17.301Z,15.27
2019-02-10T16:24:45.745Z,13.17
2019-02-10T16:27:14.042Z,10.67
2019-02-10T16:29:42.510Z,11.40
2019-02-10T16:32:10.785Z,12.97
2019-02-10T16:34:38.992Z,12.97
2019-02-10T16:40:23.467Z,11.43
2019-02-10T16:42:51.936Z,12.30
2019-02-10T16:48:36.035Z,17.70
2019-02-10T16:51:04.778Z,15.93
2019-02-10T16:53:33.268Z,15.00
2019-02-10T16:59:29.687Z,18.77
2019-02-10T17:01:59.835Z,20.07
2019-02-10T17:04:28.570Z,17.77
2019-02-10T17:06:57.035Z,11.60
2019-02-10T17:09:25.419Z,19.47
2019-02-10T17:15:11.065Z,13.03
2019-02-10T17:17:40.836Z,18.23
2019-02-10T17:20:10.316Z,12.67
2019-02-10T17:22:38.927Z,14.40
2019-02-10T17:25:09.192Z,12.87
2019-02-10T17:30:53.329Z,18.77
2019-02-10T17:33:21.667Z,15.47
2019-02-10T17:35:50.086Z,11.60
2019-02-10T17:38:18.547Z,15.00
2019-02-10T17:40:48.343Z,18.00
2019-02-10T17:43:16.588Z,14.37
2019-02-10T17:45:45.063Z,13.47
2019-02-10T17:48:13.794Z,13.70
2019-02-10T17:50:42.374Z,16.20
2019-02-10T17:53:10.785Z,11.20
2019-02-10T17:55:39.218Z,23.27
2019-02-10T17:58:07.623Z,15.70
2019-02-10T18:00:37.629Z,18.33
2019-02-10T18:03:05.818Z,13.87
2019-02-10T18:05:34.294Z,15.37
2019-02-10T18:08:02.786Z,17.07
2019-02-10T18:10:31.276Z,11.53
2019-02-10T18:12:59.626Z,14.13
2019-02-10T18:15:29.586Z,17.30
2019-02-10T18:17:59.767Z,17.63
2019-02-10T18:20:29.830Z,15.13
2019-02-10T18:26:03.513Z,14.13
2019-02-10T18:28:34.491Z,15.33
2019-02-10T18:34:20.405Z,14.57
2019-02-10T18:36:50.360Z,12.60
2019-02-10T18:39:20.516Z,15.30
2019-02-10T18:41:50.635Z,13.93
2019-02-10T18:44:20.739Z,13.70
2019-02-10T18:46:50.674Z,15.53
2019-02-10T18:49:20.795Z,16.70
2019-02-10T18:51:50.690Z,17.77
2019-02-10T18:54:20.609Z,16.80
2019-02-10T18:56:50.549Z,12.23
2019-02-10T18:59:20.484Z,14.03
2019-02-10T19:01:50.474Z,13.17
2019-02-10T19:07:25.147Z,14.77
2019-02-10T19:09:55.096Z,13.07
2019-02-10T19:12:25.098Z,15.83
2019-02-10T19:14:54.981Z,16.43
2019-02-10T19:17:24.856Z,12.07
2019-02-10T19:19:54.816Z,13.17
2019-02-10T19:22:24.706Z,14.07
2019-02-10T19:27:59.187Z,15.83
2019-02-10T19:33:46.136Z,18.30
2019-02-10T19:39:31.766Z,14.07
2019-02-10T19:45:18.758Z,13.33
2019-02-10T19:47:54.506Z,19.20
2019-02-10T19:50:25.649Z,22.20
2019-02-10T19:52:55.619Z,14.33
2019-02-10T19:58:42.199Z,17.00
2019-02-10T20:01:10.587Z,19.33
2019-02-10T20:07:05.266Z,19.27
2019-02-10T20:09:38.674Z,13.43
2019-02-10T20:15:24.228Z,15.33
2019-02-10T20:21:11.179Z,14.40
2019-02-10T20:26:44.868Z,11.80
2019-02-10T20:32:31.654Z,18.77
2019-02-10T20:35:01.672Z,10.17
2019-02-10T20:40:44.781Z,11.47
2019-02-10T20:46:30.938Z,19.40
2019-02-10T20:49:00.961Z,13.00
2019-02-10T20:54:35.634Z,11.23
2019-02-10T20:57:05.505Z,13.73
2019-02-10T21:02:51.571Z,11.17
2019-02-10T21:08:38.266Z,15.77
2019-02-10T21:11:08.300Z,19.03
2019-02-10T21:13:38.248Z,19.27
2019-02-10T21:16:08.225Z,11.43
2019-02-10T21:21:54.944Z,13.03
2019-02-10T21:27:40.553Z,17.10
2019-02-10T21:30:11.968Z,12.20
2019-02-10T21:32:41.934Z,16.63
2019-02-10T21:35:11.826Z,17.43
2019-02-10T21:37:41.908Z,11.30
2019-02-10T21:40:11.999Z,17.07
2019-02-10T21:42:42.027Z,12.40
2019-02-10T21:45:12.061Z,14.03
2019-02-10T21:47:42.071Z,12.67
2019-02-10T21:50:10.514Z,12.87
2019-02-10T21:52:38.996Z,13.67
2019-02-10T21:55:08.338Z,14.00
2019-02-10T21:57:36.655Z,15.20
2019-02-10T22:00:06.481Z,13.17
2019-02-10T22:02:36.744Z,13.67
2019-02-10T22:05:05.629Z,19.10
2019-02-10T22:07:34.314Z,13.70
2019-02-10T22:10:03.719Z,17.20
2019-02-10T22:12:36.945Z,20.83
2019-02-10T22:15:02.056Z,18.93
2019-02-10T22:17:30.510Z,15.47
2019-02-10T22:19:58.959Z,16.67
2019-02-10T22:22:27.366Z,13.30
2019-02-10T22:24:55.678Z,14.53
2019-02-10T22:27:24.406Z,19.63
2019-02-10T22:29:52.951Z,12.07
2019-02-10T22:32:21.574Z,21.00
2019-02-10T22:34:49.944Z,12.43
2019-02-10T22:37:18.226Z,18.37
2019-02-10T22:39:46.549Z,14.93
2019-02-10T22:42:16.459Z,18.40
2019-02-10T22:44:45.044Z,11.13
2019-02-10T22:47:13.381Z,12.03
2019-02-10T22:49:41.726Z,12.47
2019-02-10T22:52:10.061Z,10.77
2019-02-10T22:54:38.537Z,15.50
2019-02-10T22:57:07.014Z,19.43
2019-02-10T22:59:35.266Z,18.13
2019-02-10T23:02:03.614Z,17.13
2019-02-10T23:04:32.983Z,17.40
2019-02-10T23:07:01.234Z,13.70
2019-02-10T23:09:30.651Z,14.00
2019-02-10T23:11:59.068Z,10.40
2019-02-10T23:14:27.418Z,10.77
2019-02-10T23:16:55.788Z,13.80
2019-02-10T23:19:24.076Z,19.07
2019-02-10T23:21:52.466Z,11.97
2019-02-10T23:24:20.912Z,14.30
2019-02-10T23:26:49.289Z,20.83
2019-02-10T23:29:17.746Z,14.30
2019-02-10T23:31:46.156Z,22.20
2019-02-10T23:34:14.427Z,20.90
2019-02-10T23:36:42.901Z,12.70
2019-02-10T23:39:11.394Z,15.57
2019-02-10T23:41:39.803Z,20.50
2019-02-10T23:44:08.205Z,14.50
2019-02-10T23:46:36.481Z,15.90
2019-02-10T23:49:05.574Z,15.47
2019-02-10T23:51:34.013Z,15.10
2019-02-10T23:57:06.044Z,13.20
2019-02-10T23:59:34.486Z,16.93
